sensor_id;sensor_type;location;lat;lon;timestamp;temperature;humidity
6822;DHT22;3449;48.728;8.968;2023-04-03T00:00:42;2.40;99.90
6822;DHT22;3449;48.728;8.968;2023-04-03T00:03:09;2.40;99.90
6822;DHT22;3449;48.728;8.968;2023-04-03T00:05:36;2.40;99.90
6822;DHT22;3449;48.728;8.968;2023-04-03T00:08:03;2.40;99.90
6822;DHT22;3449;48.728;8.968;2023-04-03T00:10:35;2.40;99.90
6822;DHT22;3449;48.728;8.968;2023-04-03T00:13:02;2.40;99.90
6822;DHT22;3449;48.728;8.968;2023-04-03T00:15:29;2.40;99.90
6822;DHT22;3449;48.728;8.968;2023-04-03T00:17:55;2.30;99.90
6822;DHT22;3449;48.728;8.968;2023-04-03T00:20:22;2.30;99.90
6822;DHT22;3449;48.728;8.968;2023-04-03T00:22:50;2.40;99.90
6822;DHT22;3449;48.728;8.968;2023-04-03T00:25:17;2.30;99.90
6822;DHT22;3449;48.728;8.968;2023-04-03T00:27:45;2.30;99.90
6822;DHT22;3449;48.728;8.968;2023-04-03T00:30:15;2.30;99.90
6822;DHT22;3449;48.728;8.968;2023-04-03T00:32:42;2.30;99.90
6822;DHT22;3449;48.728;8.968;2023-04-03T00:35:09;2.30;99.90
6822;DHT22;3449;48.728;8.968;2023-04-03T00:37:36;2.30;99.90
6822;DHT22;3449;48.728;8.968;2023-04-03T00:40:04;2.30;99.90
6822;DHT22;3449;48.728;8.968;2023-04-03T00:42:31;2.20;99.90
6822;DHT22;3449;48.728;8.968;2023-04-03T00:45:28;2.20;99.90
6822;DHT22;3449;48.728;8.968;2023-04-03T00:47:56;2.10;99.90
6822;DHT22;3449;48.728;8.968;2023-04-03T00:50:25;2.10;99.90
6822;DHT22;3449;48.728;8.968;2023-04-03T00:52:53;2.10;99.90
6822;DHT22;3449;48.728;8.968;2023-04-03T00:55:20;2.10;99.90
6822;DHT22;3449;48.728;8.968;2023-04-03T00:57:48;2.10;99.90
6822;DHT22;3449;48.728;8.968;2023-04-03T01:00:18;2.10;99.90
6822;DHT22;3449;48.728;8.968;2023-04-03T01:02:47;2.10;99.90
6822;DHT22;3449;48.728;8.968;2023-04-03T01:05:16;2.00;99.90
6822;DHT22;3449;48.728;8.968;2023-04-03T01:07:43;2.00;99.90
6822;DHT22;3449;48.728;8.968;2023-04-03T01:10:14;2.00;99.90
6822;DHT22;3449;48.728;8.968;2023-04-03T01:12:43;2.10;99.90
6822;DHT22;3449;48.728;8.968;2023-04-03T01:15:13;2.00;99.90
6822;DHT22;3449;48.728;8.968;2023-04-03T01:17:43;2.00;99.90
6822;DHT22;3449;48.728;8.968;2023-04-03T01:23:28;2.10;99.90
6822;DHT22;3449;48.728;8.968;2023-04-03T01:25:58;2.10;99.90
6822;DHT22;3449;48.728;8.968;2023-04-03T01:28:28;2.00;99.90
6822;DHT22;3449;48.728;8.968;2023-04-03T01:31:00;2.10;99.90
6822;DHT22;3449;48.728;8.968;2023-04-03T01:33:30;2.00;99.90
6822;DHT22;3449;48.728;8.968;2023-04-03T01:35:57;2.00;99.90
6822;DHT22;3449;48.728;8.968;2023-04-03T01:38:24;2.00;99.90
6822;DHT22;3449;48.728;8.968;2023-04-03T01:40:51;2.00;99.90
6822;DHT22;3449;48.728;8.968;2023-04-03T01:43:18;2.00;99.90
6822;DHT22;3449;48.728;8.968;2023-04-03T01:45:45;2.00;99.90
6822;DHT22;3449;48.728;8.968;2023-04-03T01:48:14;2.00;99.90
6822;DHT22;3449;48.728;8.968;2023-04-03T01:50:42;2.00;99.90
6822;DHT22;3449;48.728;8.968;2023-04-03T01:53:09;2.00;99.90
6822;DHT22;3449;48.728;8.968;2023-04-03T01:55:36;2.00;99.90
6822;DHT22;3449;48.728;8.968;2023-04-03T01:58:03;2.00;99.90
6822;DHT22;3449;48.728;8.968;2023-04-03T02:00:30;1.90;99.90
6822;DHT22;3449;48.728;8.968;2023-04-03T02:02:57;2.00;99.90
6822;DHT22;3449;48.728;8.968;2023-04-03T02:05:24;2.00;99.90
6822;DHT22;3449;48.728;8.968;2023-04-03T02:07:52;1.90;99.90
6822;DHT22;3449;48.728;8.968;2023-04-03T02:10:19;1.80;99.90
6822;DHT22;3449;48.728;8.968;2023-04-03T02:12:46;1.90;99.90
6822;DHT22;3449;48.728;8.968;2023-04-03T02:15:12;1.80;99.90
6822;DHT22;3449;48.728;8.968;2023-04-03T02:17:39;1.80;99.90
6822;DHT22;3449;48.728;8.968;2023-04-03T02:20:08;1.80;99.90
6822;DHT22;3449;48.728;8.968;2023-04-03T02:22:35;1.80;99.90
6822;DHT22;3449;48.728;8.968;2023-04-03T02:25:04;1.80;99.90
6822;DHT22;3449;48.728;8.968;2023-04-03T02:27:31;1.80;99.90
6822;DHT22;3449;48.728;8.968;2023-04-03T02:29:58;1.80;99.90
6822;DHT22;3449;48.728;8.968;2023-04-03T02:32:25;1.80;99.90
6822;DHT22;3449;48.728;8.968;2023-04-03T02:34:52;1.70;99.90
6822;DHT22;3449;48.728;8.968;2023-04-03T02:37:18;1.80;99.90
6822;DHT22;3449;48.728;8.968;2023-04-03T02:39:46;1.80;99.90
6822;DHT22;3449;48.728;8.968;2023-04-03T02:42:14;1.80;99.90
6822;DHT22;3449;48.728;8.968;2023-04-03T02:44:41;1.90;99.90
6822;DHT22;3449;48.728;8.968;2023-04-03T02:47:08;1.80;99.90
6822;DHT22;3449;48.728;8.968;2023-04-03T02:49:35;1.80;99.90
6822;DHT22;3449;48.728;8.968;2023-04-03T02:52:02;1.80;99.90
6822;DHT22;3449;48.728;8.968;2023-04-03T02:54:29;1.80;99.90
6822;DHT22;3449;48.728;8.968;2023-04-03T02:56:56;1.70;99.90
6822;DHT22;3449;48.728;8.968;2023-04-03T02:59:24;1.80;99.90
6822;DHT22;3449;48.728;8.968;2023-04-03T03:01:51;1.80;99.90
6822;DHT22;3449;48.728;8.968;2023-04-03T03:04:18;1.80;99.90
6822;DHT22;3449;48.728;8.968;2023-04-03T03:06:45;1.80;99.90
6822;DHT22;3449;48.728;8.968;2023-04-03T03:09:13;1.90;99.90
6822;DHT22;3449;48.728;8.968;2023-04-03T03:11:40;1.80;99.90
6822;DHT22;3449;48.728;8.968;2023-04-03T03:14:07;1.80;99.90
6822;DHT22;3449;48.728;8.968;2023-04-03T03:16:35;1.80;99.90
6822;DHT22;3449;48.728;8.968;2023-04-03T03:19:02;1.80;99.90
6822;DHT22;3449;48.728;8.968;2023-04-03T03:21:29;1.80;99.90
6822;DHT22;3449;48.728;8.968;2023-04-03T03:23:56;1.90;99.90
6822;DHT22;3449;48.728;8.968;2023-04-03T03:26:23;1.90;99.90
6822;DHT22;3449;48.728;8.968;2023-04-03T03:28:50;1.80;99.90
6822;DHT22;3449;48.728;8.968;2023-04-03T03:31:17;1.90;99.90
6822;DHT22;3449;48.728;8.968;2023-04-03T03:33:45;1.80;99.90
6822;DHT22;3449;48.728;8.968;2023-04-03T03:36:12;1.90;99.90
6822;DHT22;3449;48.728;8.968;2023-04-03T03:38:39;1.90;99.90
6822;DHT22;3449;48.728;8.968;2023-04-03T03:41:06;1.80;99.90
6822;DHT22;3449;48.728;8.968;2023-04-03T03:43:33;1.80;99.90
6822;DHT22;3449;48.728;8.968;2023-04-03T03:46:00;1.80;99.90
6822;DHT22;3449;48.728;8.968;2023-04-03T03:48:27;1.70;99.90
6822;DHT22;3449;48.728;8.968;2023-04-03T03:50:55;1.80;99.90
6822;DHT22;3449;48.728;8.968;2023-04-03T03:53:22;1.80;99.90
6822;DHT22;3449;48.728;8.968;2023-04-03T03:55:48;1.80;99.90
6822;DHT22;3449;48.728;8.968;2023-04-03T03:58:16;1.80;99.90
6822;DHT22;3449;48.728;8.968;2023-04-03T04:00:42;1.80;99.90
6822;DHT22;3449;48.728;8.968;2023-04-03T04:03:09;1.80;99.90
6822;DHT22;3449;48.728;8.968;2023-04-03T04:05:36;1.80;99.90
6822;DHT22;3449;48.728;8.968;2023-04-03T04:08:05;1.80;99.90
6822;DHT22;3449;48.728;8.968;2023-04-03T04:10:32;1.80;99.90
6822;DHT22;3449;48.728;8.968;2023-04-03T04:12:58;1.80;99.90
6822;DHT22;3449;48.728;8.968;2023-04-03T04:15:25;1.80;99.90
6822;DHT22;3449;48.728;8.968;2023-04-03T04:17:52;1.80;99.90
6822;DHT22;3449;48.728;8.968;2023-04-03T04:20:19;1.80;99.90
6822;DHT22;3449;48.728;8.968;2023-04-03T04:22:46;1.80;99.90
6822;DHT22;3449;48.728;8.968;2023-04-03T04:25:15;1.80;99.90
6822;DHT22;3449;48.728;8.968;2023-04-03T04:27:41;1.90;99.90
6822;DHT22;3449;48.728;8.968;2023-04-03T04:30:09;1.90;99.90
6822;DHT22;3449;48.728;8.968;2023-04-03T04:32:36;1.90;99.90
6822;DHT22;3449;48.728;8.968;2023-04-03T04:35:04;1.90;99.90
6822;DHT22;3449;48.728;8.968;2023-04-03T04:37:31;1.90;99.90
6822;DHT22;3449;48.728;8.968;2023-04-03T04:39:58;1.90;99.90
6822;DHT22;3449;48.728;8.968;2023-04-03T04:42:27;1.90;99.90
6822;DHT22;3449;48.728;8.968;2023-04-03T04:44:53;1.90;99.90
6822;DHT22;3449;48.728;8.968;2023-04-03T04:47:20;1.90;99.90
6822;DHT22;3449;48.728;8.968;2023-04-03T04:49:47;1.90;99.90
6822;DHT22;3449;48.728;8.968;2023-04-03T04:52:14;1.90;99.90
6822;DHT22;3449;48.728;8.968;2023-04-03T04:54:41;1.90;99.90
6822;DHT22;3449;48.728;8.968;2023-04-03T04:57:08;1.90;99.90
6822;DHT22;3449;48.728;8.968;2023-04-03T04:59:37;1.90;99.90
6822;DHT22;3449;48.728;8.968;2023-04-03T05:02:04;1.90;99.90
6822;DHT22;3449;48.728;8.968;2023-04-03T05:04:31;1.90;99.90
6822;DHT22;3449;48.728;8.968;2023-04-03T05:06:58;1.90;99.90
6822;DHT22;3449;48.728;8.968;2023-04-03T05:09:26;1.90;99.90
6822;DHT22;3449;48.728;8.968;2023-04-03T05:11:52;2.00;99.90
6822;DHT22;3449;48.728;8.968;2023-04-03T05:14:19;2.00;99.90
6822;DHT22;3449;48.728;8.968;2023-04-03T05:16:48;2.00;99.90
6822;DHT22;3449;48.728;8.968;2023-04-03T05:19:18;2.00;99.90
6822;DHT22;3449;48.728;8.968;2023-04-03T05:21:45;2.00;99.90
6822;DHT22;3449;48.728;8.968;2023-04-03T05:24:12;2.00;99.90
6822;DHT22;3449;48.728;8.968;2023-04-03T05:26:39;2.00;99.90
6822;DHT22;3449;48.728;8.968;2023-04-03T05:29:06;2.00;99.90
6822;DHT22;3449;48.728;8.968;2023-04-03T05:31:33;2.00;99.90
6822;DHT22;3449;48.728;8.968;2023-04-03T05:34:02;2.00;99.90
6822;DHT22;3449;48.728;8.968;2023-04-03T05:36:29;2.10;99.90
6822;DHT22;3449;48.728;8.968;2023-04-03T05:38:56;2.10;99.90
6822;DHT22;3449;48.728;8.968;2023-04-03T05:41:23;2.10;99.90
6822;DHT22;3449;48.728;8.968;2023-04-03T05:43:50;2.10;99.90
6822;DHT22;3449;48.728;8.968;2023-04-03T05:46:18;2.10;99.90
6822;DHT22;3449;48.728;8.968;2023-04-03T05:48:46;2.20;99.90
6822;DHT22;3449;48.728;8.968;2023-04-03T05:51:17;2.20;99.90
6822;DHT22;3449;48.728;8.968;2023-04-03T05:53:44;2.30;99.90
6822;DHT22;3449;48.728;8.968;2023-04-03T05:56:13;2.40;99.90
6822;DHT22;3449;48.728;8.968;2023-04-03T05:58:40;2.40;99.90
6822;DHT22;3449;48.728;8.968;2023-04-03T06:01:06;2.40;99.90
6822;DHT22;3449;48.728;8.968;2023-04-03T06:03:34;2.50;99.90
6822;DHT22;3449;48.728;8.968;2023-04-03T06:06:03;2.60;99.90
6822;DHT22;3449;48.728;8.968;2023-04-03T06:08:31;2.60;99.90
6822;DHT22;3449;48.728;8.968;2023-04-03T06:10:59;2.60;99.90
6822;DHT22;3449;48.728;8.968;2023-04-03T06:13:27;2.60;99.90
6822;DHT22;3449;48.728;8.968;2023-04-03T06:15:54;2.60;99.90
6822;DHT22;3449;48.728;8.968;2023-04-03T06:18:22;2.50;99.90
6822;DHT22;3449;48.728;8.968;2023-04-03T06:20:48;2.50;99.90
6822;DHT22;3449;48.728;8.968;2023-04-03T06:23:15;2.50;99.90
6822;DHT22;3449;48.728;8.968;2023-04-03T06:25:44;2.50;99.90
6822;DHT22;3449;48.728;8.968;2023-04-03T06:28:11;2.50;99.90
6822;DHT22;3449;48.728;8.968;2023-04-03T06:30:38;2.60;99.90
6822;DHT22;3449;48.728;8.968;2023-04-03T06:33:05;2.60;99.90
6822;DHT22;3449;48.728;8.968;2023-04-03T06:35:32;2.50;99.90
6822;DHT22;3449;48.728;8.968;2023-04-03T06:38:00;2.50;99.90
6822;DHT22;3449;48.728;8.968;2023-04-03T06:40:29;2.50;99.90
6822;DHT22;3449;48.728;8.968;2023-04-03T06:42:57;2.50;99.90
6822;DHT22;3449;48.728;8.968;2023-04-03T06:45:24;2.60;99.90
6822;DHT22;3449;48.728;8.968;2023-04-03T06:47:51;2.60;99.90
6822;DHT22;3449;48.728;8.968;2023-04-03T06:50:19;2.50;99.90
6822;DHT22;3449;48.728;8.968;2023-04-03T06:52:46;2.60;99.90
6822;DHT22;3449;48.728;8.968;2023-04-03T06:55:12;2.70;99.90
6822;DHT22;3449;48.728;8.968;2023-04-03T06:57:39;2.80;99.90
6822;DHT22;3449;48.728;8.968;2023-04-03T07:00:09;2.80;99.90
6822;DHT22;3449;48.728;8.968;2023-04-03T07:02:36;2.90;99.90
6822;DHT22;3449;48.728;8.968;2023-04-03T07:05:03;2.90;99.90
6822;DHT22;3449;48.728;8.968;2023-04-03T07:07:31;3.00;99.90
6822;DHT22;3449;48.728;8.968;2023-04-03T07:09:59;3.10;99.90
6822;DHT22;3449;48.728;8.968;2023-04-03T07:12:26;3.10;99.90
6822;DHT22;3449;48.728;8.968;2023-04-03T07:14:53;3.20;99.90
6822;DHT22;3449;48.728;8.968;2023-04-03T07:17:21;3.10;99.90
6822;DHT22;3449;48.728;8.968;2023-04-03T07:19:48;3.00;99.90
6822;DHT22;3449;48.728;8.968;2023-04-03T07:22:15;3.10;99.90
6822;DHT22;3449;48.728;8.968;2023-04-03T07:24:42;3.00;99.90
6822;DHT22;3449;48.728;8.968;2023-04-03T07:27:09;3.00;99.90
6822;DHT22;3449;48.728;8.968;2023-04-03T07:29:38;3.00;99.90
6822;DHT22;3449;48.728;8.968;2023-04-03T07:32:05;2.90;99.90
6822;DHT22;3449;48.728;8.968;2023-04-03T07:34:34;3.00;99.90
6822;DHT22;3449;48.728;8.968;2023-04-03T07:37:01;3.10;99.90
6822;DHT22;3449;48.728;8.968;2023-04-03T07:39:28;3.00;99.90
6822;DHT22;3449;48.728;8.968;2023-04-03T07:41:55;3.00;99.90
6822;DHT22;3449;48.728;8.968;2023-04-03T07:44:22;3.20;99.90
6822;DHT22;3449;48.728;8.968;2023-04-03T07:46:50;3.30;99.90
6822;DHT22;3449;48.728;8.968;2023-04-03T07:49:17;3.30;99.90
6822;DHT22;3449;48.728;8.968;2023-04-03T07:51:45;3.50;99.90
6822;DHT22;3449;48.728;8.968;2023-04-03T07:54:14;3.60;99.90
6822;DHT22;3449;48.728;8.968;2023-04-03T07:56:41;3.70;99.90
6822;DHT22;3449;48.728;8.968;2023-04-03T07:59:08;3.60;99.90
6822;DHT22;3449;48.728;8.968;2023-04-03T08:01:36;3.70;99.90
6822;DHT22;3449;48.728;8.968;2023-04-03T08:04:02;3.80;99.90
6822;DHT22;3449;48.728;8.968;2023-04-03T08:06:31;3.80;99.90
6822;DHT22;3449;48.728;8.968;2023-04-03T08:09:02;3.70;99.90
6822;DHT22;3449;48.728;8.968;2023-04-03T08:11:29;3.90;99.90
6822;DHT22;3449;48.728;8.968;2023-04-03T08:13:56;3.90;99.90
6822;DHT22;3449;48.728;8.968;2023-04-03T08:16:24;3.80;99.90
6822;DHT22;3449;48.728;8.968;2023-04-03T08:18:52;4.10;99.90
6822;DHT22;3449;48.728;8.968;2023-04-03T08:21:19;4.20;99.90
6822;DHT22;3449;48.728;8.968;2023-04-03T08:23:48;4.20;99.90
6822;DHT22;3449;48.728;8.968;2023-04-03T08:26:19;4.30;99.90
6822;DHT22;3449;48.728;8.968;2023-04-03T08:28:47;4.50;99.90
6822;DHT22;3449;48.728;8.968;2023-04-03T08:31:16;4.50;99.90
6822;DHT22;3449;48.728;8.968;2023-04-03T08:33:44;4.60;99.90
6822;DHT22;3449;48.728;8.968;2023-04-03T08:36:20;4.70;99.90
6822;DHT22;3449;48.728;8.968;2023-04-03T08:38:47;4.50;99.90
6822;DHT22;3449;48.728;8.968;2023-04-03T08:41:19;4.70;99.90
6822;DHT22;3449;48.728;8.968;2023-04-03T08:44:01;4.80;99.90
6822;DHT22;3449;48.728;8.968;2023-04-03T08:46:38;4.60;99.90
6822;DHT22;3449;48.728;8.968;2023-04-03T08:49:11;4.80;99.90
6822;DHT22;3449;48.728;8.968;2023-04-03T08:51:46;4.80;99.90
6822;DHT22;3449;48.728;8.968;2023-04-03T08:54:21;4.80;99.90
6822;DHT22;3449;48.728;8.968;2023-04-03T08:56:53;4.50;99.90
6822;DHT22;3449;48.728;8.968;2023-04-03T08:59:26;4.40;99.90
6822;DHT22;3449;48.728;8.968;2023-04-03T09:01:56;4.40;99.90
6822;DHT22;3449;48.728;8.968;2023-04-03T09:04:27;4.60;99.90
6822;DHT22;3449;48.728;8.968;2023-04-03T09:06:58;4.90;99.90
6822;DHT22;3449;48.728;8.968;2023-04-03T09:09:31;5.20;99.90
6822;DHT22;3449;48.728;8.968;2023-04-03T09:12:11;5.10;99.90
6822;DHT22;3449;48.728;8.968;2023-04-03T09:14:45;4.90;99.90
6822;DHT22;3449;48.728;8.968;2023-04-03T09:17:19;4.80;99.90
6822;DHT22;3449;48.728;8.968;2023-04-03T09:19:54;4.80;99.90
6822;DHT22;3449;48.728;8.968;2023-04-03T09:22:24;5.00;99.90
6822;DHT22;3449;48.728;8.968;2023-04-03T09:24:57;5.20;99.90
6822;DHT22;3449;48.728;8.968;2023-04-03T09:27:26;5.50;99.90
6822;DHT22;3449;48.728;8.968;2023-04-03T09:29:55;5.60;99.90
6822;DHT22;3449;48.728;8.968;2023-04-03T09:32:27;5.40;99.90
6822;DHT22;3449;48.728;8.968;2023-04-03T09:34:57;5.30;99.90
6822;DHT22;3449;48.728;8.968;2023-04-03T09:37:36;5.30;99.90
6822;DHT22;3449;48.728;8.968;2023-04-03T09:40:05;5.00;99.90
6822;DHT22;3449;48.728;8.968;2023-04-03T09:42:40;4.90;99.90
6822;DHT22;3449;48.728;8.968;2023-04-03T09:45:21;5.00;99.90
6822;DHT22;3449;48.728;8.968;2023-04-03T09:47:49;5.00;99.90
6822;DHT22;3449;48.728;8.968;2023-04-03T09:50:31;5.00;99.90
6822;DHT22;3449;48.728;8.968;2023-04-03T09:52:58;5.10;99.90
6822;DHT22;3449;48.728;8.968;2023-04-03T09:55:26;5.20;99.90
6822;DHT22;3449;48.728;8.968;2023-04-03T09:57:58;5.20;99.90
6822;DHT22;3449;48.728;8.968;2023-04-03T10:00:30;5.20;99.90
6822;DHT22;3449;48.728;8.968;2023-04-03T10:02:58;5.20;99.90
6822;DHT22;3449;48.728;8.968;2023-04-03T10:05:29;5.20;99.90
6822;DHT22;3449;48.728;8.968;2023-04-03T10:08:09;5.10;99.90
6822;DHT22;3449;48.728;8.968;2023-04-03T10:10:36;5.30;99.90
6822;DHT22;3449;48.728;8.968;2023-04-03T10:13:07;5.30;99.90
6822;DHT22;3449;48.728;8.968;2023-04-03T10:15:39;5.60;99.90
6822;DHT22;3449;48.728;8.968;2023-04-03T10:18:19;5.90;99.90
6822;DHT22;3449;48.728;8.968;2023-04-03T10:20:50;5.90;99.90
6822;DHT22;3449;48.728;8.968;2023-04-03T10:23:21;5.80;99.90
6822;DHT22;3449;48.728;8.968;2023-04-03T10:25:56;5.80;99.90
6822;DHT22;3449;48.728;8.968;2023-04-03T10:28:32;5.50;99.90
6822;DHT22;3449;48.728;8.968;2023-04-03T10:31:05;5.10;99.90
6822;DHT22;3449;48.728;8.968;2023-04-03T10:33:47;4.90;99.90
6822;DHT22;3449;48.728;8.968;2023-04-03T10:36:25;4.90;99.90
6822;DHT22;3449;48.728;8.968;2023-04-03T10:39:02;4.90;99.90
6822;DHT22;3449;48.728;8.968;2023-04-03T10:41:38;4.80;99.90
6822;DHT22;3449;48.728;8.968;2023-04-03T10:44:16;4.80;99.90
6822;DHT22;3449;48.728;8.968;2023-04-03T10:46:49;4.90;99.90
6822;DHT22;3449;48.728;8.968;2023-04-03T10:49:25;4.90;99.90
6822;DHT22;3449;48.728;8.968;2023-04-03T10:51:58;4.70;99.90
6822;DHT22;3449;48.728;8.968;2023-04-03T10:54:34;4.70;99.90
6822;DHT22;3449;48.728;8.968;2023-04-03T10:57:04;4.70;99.90
6822;DHT22;3449;48.728;8.968;2023-04-03T10:59:35;4.80;99.90
6822;DHT22;3449;48.728;8.968;2023-04-03T11:02:06;4.80;99.90
6822;DHT22;3449;48.728;8.968;2023-04-03T11:04:36;4.80;99.90
6822;DHT22;3449;48.728;8.968;2023-04-03T11:07:10;4.90;99.90
6822;DHT22;3449;48.728;8.968;2023-04-03T11:09:41;4.90;99.90
6822;DHT22;3449;48.728;8.968;2023-04-03T11:12:12;5.00;99.90
6822;DHT22;3449;48.728;8.968;2023-04-03T11:14:41;5.10;99.90
6822;DHT22;3449;48.728;8.968;2023-04-03T11:17:20;5.10;99.90
6822;DHT22;3449;48.728;8.968;2023-04-03T11:19:52;4.90;99.90
6822;DHT22;3449;48.728;8.968;2023-04-03T11:22:29;4.90;99.90
6822;DHT22;3449;48.728;8.968;2023-04-03T11:25:02;4.80;99.90
6822;DHT22;3449;48.728;8.968;2023-04-03T11:27:36;4.80;99.90
6822;DHT22;3449;48.728;8.968;2023-04-03T11:30:09;4.80;99.90
6822;DHT22;3449;48.728;8.968;2023-04-03T11:32:54;4.90;99.90
6822;DHT22;3449;48.728;8.968;2023-04-03T11:35:24;4.90;99.90
6822;DHT22;3449;48.728;8.968;2023-04-03T11:37:53;4.90;99.90
6822;DHT22;3449;48.728;8.968;2023-04-03T11:40:23;4.90;99.90
6822;DHT22;3449;48.728;8.968;2023-04-03T11:42:54;4.80;99.90
6822;DHT22;3449;48.728;8.968;2023-04-03T11:45:32;4.90;99.90
6822;DHT22;3449;48.728;8.968;2023-04-03T11:48:01;4.90;99.90
6822;DHT22;3449;48.728;8.968;2023-04-03T11:50:42;4.90;99.90
6822;DHT22;3449;48.728;8.968;2023-04-03T11:53:33;4.90;99.90
6822;DHT22;3449;48.728;8.968;2023-04-03T11:56:28;4.90;99.90
6822;DHT22;3449;48.728;8.968;2023-04-03T11:59:15;4.80;99.90
6822;DHT22;3449;48.728;8.968;2023-04-03T12:01:47;4.90;99.90
6822;DHT22;3449;48.728;8.968;2023-04-03T12:04:16;4.90;99.90
6822;DHT22;3449;48.728;8.968;2023-04-03T12:10:02;4.90;99.90
6822;DHT22;3449;48.728;8.968;2023-04-03T12:12:37;4.80;99.90
6822;DHT22;3449;48.728;8.968;2023-04-03T12:18:44;4.80;99.90
6822;DHT22;3449;48.728;8.968;2023-04-03T12:21:22;5.00;99.90
6822;DHT22;3449;48.728;8.968;2023-04-03T12:24:01;5.00;99.90
6822;DHT22;3449;48.728;8.968;2023-04-03T12:26:31;5.20;99.90
6822;DHT22;3449;48.728;8.968;2023-04-03T12:28:59;5.20;99.90
6822;DHT22;3449;48.728;8.968;2023-04-03T12:31:38;5.20;99.90
6822;DHT22;3449;48.728;8.968;2023-04-03T12:34:18;5.30;99.90
6822;DHT22;3449;48.728;8.968;2023-04-03T12:36:59;5.40;99.90
6822;DHT22;3449;48.728;8.968;2023-04-03T12:39:54;5.50;99.90
6822;DHT22;3449;48.728;8.968;2023-04-03T12:45:19;5.40;99.90
6822;DHT22;3449;48.728;8.968;2023-04-03T12:47:49;5.50;99.90
6822;DHT22;3449;48.728;8.968;2023-04-03T12:50:21;5.40;99.90
6822;DHT22;3449;48.728;8.968;2023-04-03T12:52:54;5.40;99.90
6822;DHT22;3449;48.728;8.968;2023-04-03T12:55:21;5.30;99.90
6822;DHT22;3449;48.728;8.968;2023-04-03T12:57:48;5.20;99.90
6822;DHT22;3449;48.728;8.968;2023-04-03T13:03:06;5.30;99.90
6822;DHT22;3449;48.728;8.968;2023-04-03T13:05:47;5.40;99.90
6822;DHT22;3449;48.728;8.968;2023-04-03T13:08:14;5.30;99.90
6822;DHT22;3449;48.728;8.968;2023-04-03T13:10:55;5.30;99.90
6822;DHT22;3449;48.728;8.968;2023-04-03T13:13:23;5.40;99.90
6822;DHT22;3449;48.728;8.968;2023-04-03T13:15:52;5.30;99.90
6822;DHT22;3449;48.728;8.968;2023-04-03T13:18:25;5.30;99.90
6822;DHT22;3449;48.728;8.968;2023-04-03T13:20:55;5.40;99.90
6822;DHT22;3449;48.728;8.968;2023-04-03T13:23:24;5.30;99.90
6822;DHT22;3449;48.728;8.968;2023-04-03T13:25:51;5.10;99.90
6822;DHT22;3449;48.728;8.968;2023-04-03T13:28:22;5.00;99.90
6822;DHT22;3449;48.728;8.968;2023-04-03T13:31:02;5.10;99.90
6822;DHT22;3449;48.728;8.968;2023-04-03T13:33:33;5.20;99.90
6822;DHT22;3449;48.728;8.968;2023-04-03T13:36:06;5.30;99.90
6822;DHT22;3449;48.728;8.968;2023-04-03T13:38:35;5.40;99.90
6822;DHT22;3449;48.728;8.968;2023-04-03T13:41:05;5.60;99.90
6822;DHT22;3449;48.728;8.968;2023-04-03T13:43:34;5.70;99.90
6822;DHT22;3449;48.728;8.968;2023-04-03T13:46:24;6.00;99.90
6822;DHT22;3449;48.728;8.968;2023-04-03T13:48:53;6.80;99.90
6822;DHT22;3449;48.728;8.968;2023-04-03T13:51:24;6.90;99.90
6822;DHT22;3449;48.728;8.968;2023-04-03T13:53:53;7.20;99.90
6822;DHT22;3449;48.728;8.968;2023-04-03T13:56:27;7.40;99.90
6822;DHT22;3449;48.728;8.968;2023-04-03T13:59:22;7.50;99.90
6822;DHT22;3449;48.728;8.968;2023-04-03T14:01:51;7.80;99.90
6822;DHT22;3449;48.728;8.968;2023-04-03T14:04:21;7.90;99.90
6822;DHT22;3449;48.728;8.968;2023-04-03T14:06:50;7.50;99.90
6822;DHT22;3449;48.728;8.968;2023-04-03T14:09:18;7.40;99.90
6822;DHT22;3449;48.728;8.968;2023-04-03T14:11:48;7.30;99.90
6822;DHT22;3449;48.728;8.968;2023-04-03T14:14:18;7.00;99.90
6822;DHT22;3449;48.728;8.968;2023-04-03T14:16:48;6.90;99.90
6822;DHT22;3449;48.728;8.968;2023-04-03T14:19:23;6.90;99.90
6822;DHT22;3449;48.728;8.968;2023-04-03T14:21:53;6.70;99.90
6822;DHT22;3449;48.728;8.968;2023-04-03T14:24:20;6.50;99.90
6822;DHT22;3449;48.728;8.968;2023-04-03T14:26:48;6.70;99.90
6822;DHT22;3449;48.728;8.968;2023-04-03T14:29:16;6.90;99.90
6822;DHT22;3449;48.728;8.968;2023-04-03T14:31:44;6.90;99.90
6822;DHT22;3449;48.728;8.968;2023-04-03T14:34:12;6.70;99.90
6822;DHT22;3449;48.728;8.968;2023-04-03T14:36:42;6.70;99.90
6822;DHT22;3449;48.728;8.968;2023-04-03T14:39:17;6.50;99.90
6822;DHT22;3449;48.728;8.968;2023-04-03T14:41:45;6.40;99.90
6822;DHT22;3449;48.728;8.968;2023-04-03T14:44:12;6.40;99.90
6822;DHT22;3449;48.728;8.968;2023-04-03T14:46:42;6.20;99.90
6822;DHT22;3449;48.728;8.968;2023-04-03T14:49:12;6.10;99.90
6822;DHT22;3449;48.728;8.968;2023-04-03T14:51:40;6.10;99.90
6822;DHT22;3449;48.728;8.968;2023-04-03T14:54:14;5.90;99.90
6822;DHT22;3449;48.728;8.968;2023-04-03T14:56:41;6.00;99.90
6822;DHT22;3449;48.728;8.968;2023-04-03T14:59:11;6.00;99.90
6822;DHT22;3449;48.728;8.968;2023-04-03T15:01:39;6.00;99.90
6822;DHT22;3449;48.728;8.968;2023-04-03T15:04:10;5.90;99.90
6822;DHT22;3449;48.728;8.968;2023-04-03T15:06:37;5.80;99.90
6822;DHT22;3449;48.728;8.968;2023-04-03T15:09:04;5.80;99.90
6822;DHT22;3449;48.728;8.968;2023-04-03T15:11:32;5.90;99.90
6822;DHT22;3449;48.728;8.968;2023-04-03T15:13:59;6.50;99.90
6822;DHT22;3449;48.728;8.968;2023-04-03T15:16:26;7.30;99.90
6822;DHT22;3449;48.728;8.968;2023-04-03T15:18:53;7.90;99.90
6822;DHT22;3449;48.728;8.968;2023-04-03T15:21:20;8.80;99.90
6822;DHT22;3449;48.728;8.968;2023-04-03T15:23:47;9.40;99.90
6822;DHT22;3449;48.728;8.968;2023-04-03T15:26:14;9.50;99.90
6822;DHT22;3449;48.728;8.968;2023-04-03T15:28:43;9.50;99.90
6822;DHT22;3449;48.728;8.968;2023-04-03T15:31:11;8.90;99.90
6822;DHT22;3449;48.728;8.968;2023-04-03T15:33:38;8.40;99.90
6822;DHT22;3449;48.728;8.968;2023-04-03T15:36:05;8.10;99.90
6822;DHT22;3449;48.728;8.968;2023-04-03T15:38:32;7.60;99.90
6822;DHT22;3449;48.728;8.968;2023-04-03T15:40:59;6.90;99.90
6822;DHT22;3449;48.728;8.968;2023-04-03T15:43:27;6.60;99.90
6822;DHT22;3449;48.728;8.968;2023-04-03T15:45:56;6.50;99.90
6822;DHT22;3449;48.728;8.968;2023-04-03T15:48:24;6.50;99.90
6822;DHT22;3449;48.728;8.968;2023-04-03T15:50:51;6.40;99.90
6822;DHT22;3449;48.728;8.968;2023-04-03T15:53:18;6.20;99.90
6822;DHT22;3449;48.728;8.968;2023-04-03T15:55:46;6.20;99.90
6822;DHT22;3449;48.728;8.968;2023-04-03T15:58:13;6.30;99.90
6822;DHT22;3449;48.728;8.968;2023-04-03T16:00:40;6.40;99.90
6822;DHT22;3449;48.728;8.968;2023-04-03T16:03:11;6.90;99.90
6822;DHT22;3449;48.728;8.968;2023-04-03T16:05:39;7.00;99.90
6822;DHT22;3449;48.728;8.968;2023-04-03T16:08:06;7.40;99.90
6822;DHT22;3449;48.728;8.968;2023-04-03T16:10:34;8.20;99.90
6822;DHT22;3449;48.728;8.968;2023-04-03T16:13:01;8.80;99.90
6822;DHT22;3449;48.728;8.968;2023-04-03T16:15:29;8.80;99.90
6822;DHT22;3449;48.728;8.968;2023-04-03T16:17:57;8.00;99.90
6822;DHT22;3449;48.728;8.968;2023-04-03T16:20:26;7.30;99.90
6822;DHT22;3449;48.728;8.968;2023-04-03T16:22:53;6.80;99.90
6822;DHT22;3449;48.728;8.968;2023-04-03T16:25:22;6.50;99.90
6822;DHT22;3449;48.728;8.968;2023-04-03T16:27:49;6.20;99.90
6822;DHT22;3449;48.728;8.968;2023-04-03T16:30:16;6.30;99.90
6822;DHT22;3449;48.728;8.968;2023-04-03T16:32:43;6.50;99.90
6822;DHT22;3449;48.728;8.968;2023-04-03T16:35:10;7.00;99.90
6822;DHT22;3449;48.728;8.968;2023-04-03T16:37:39;7.20;99.90
6822;DHT22;3449;48.728;8.968;2023-04-03T16:40:08;7.10;99.90
6822;DHT22;3449;48.728;8.968;2023-04-03T16:42:35;7.00;99.90
6822;DHT22;3449;48.728;8.968;2023-04-03T16:45:03;6.60;99.90
6822;DHT22;3449;48.728;8.968;2023-04-03T16:47:30;6.50;99.90